KAPF

Naples Municipal Airport

Naples, Florida, USA
METAR KAPF 252153Z 10003KT 10SM FEW036 BKN070 OVC095 25/25 A2996 RMK AO2 SLP144 T02500250 $
Observed Flight Rules
May-25 @ 21:53 UTC (42 minutes ago) Visual Flight Rules
Wind Visibility Clouds
100° at 3 knots 10 miles
  • Few at 3,600' AGL
  • Broken at 7,000' AGL
  • Overcast at 9,500' AGL
Temperatures Readings
Current 25°C / 77°F
Dewpoint 25°C / 77°F
Humidity 100%
Altimeter 29.96" Hg
Pressure 1014.4 hPa
Elevation 3
METAR KAPF 252153Z 10003KT 10SM FEW036 BKN070 OVC095 25/25 A2996 RMK AO2 SLP144 T02500250 $
Observed Flight Rules
May-25 @ 21:53 UTC
(42 minutes ago)
VFR
Wind Visibility
100° at 3 knots 10 miles
Clouds
  • Few at 3,600' AGL
  • Broken at 7,000' AGL
  • Overcast at 9,500' AGL
Temperature Dewpoint
25°C / 77°F 25°C / 77°F
Humidity Altimeter Pressure
100% 29.96" Hg 1014.4 hPa